createdAt,value
2017-10-14T00:01:50.604Z,7.59
2017-10-14T00:11:21.335Z,7.49
2017-10-14T00:20:58.331Z,7.59
2017-10-14T00:30:35.264Z,7.49
2017-10-14T00:40:16.066Z,7.49
2017-10-14T00:49:47.596Z,7.79
2017-10-14T00:59:25.522Z,7.89
2017-10-14T01:09:01.991Z,7.89
2017-10-14T01:18:39.606Z,7.69
2017-10-14T01:28:20.034Z,7.49
2017-10-14T01:37:50.880Z,7.49
2017-10-14T01:47:27.898Z,7.40
2017-10-14T01:57:04.552Z,7.49
2017-10-14T02:06:41.350Z,7.40
2017-10-14T02:16:18.495Z,7.20
2017-10-14T02:25:55.264Z,7.20
2017-10-14T02:35:31.665Z,7.10
2017-10-14T02:45:09.380Z,7.01
2017-10-14T02:54:50.032Z,6.91
2017-10-14T03:04:25.033Z,6.71
2017-10-14T03:14:00.020Z,6.61
2017-10-14T03:23:30.772Z,6.52
2017-10-14T03:33:08.917Z,6.52
2017-10-14T03:42:45.885Z,6.52
2017-10-14T03:52:26.228Z,6.42
2017-10-14T04:01:57.691Z,6.42
2017-10-14T04:11:38.421Z,6.32
2017-10-14T04:21:12.981Z,6.32
2017-10-14T04:30:47.856Z,6.12
2017-10-14T04:40:19.029Z,6.12
2017-10-14T04:49:55.783Z,6.03
2017-10-14T04:59:37.025Z,6.03
2017-10-14T05:09:07.858Z,5.93
2017-10-14T05:18:44.575Z,5.93
2017-10-14T05:28:21.482Z,6.03
2017-10-14T05:38:02.548Z,5.93
2017-10-14T05:47:33.681Z,6.12
2017-10-14T05:57:15.092Z,6.22
2017-10-14T06:06:46.376Z,6.61
2017-10-14T06:16:23.593Z,6.91
2017-10-14T06:26:01.164Z,7.40
2017-10-14T06:35:38.669Z,7.69
2017-10-14T06:45:17.339Z,8.18
2017-10-14T06:54:55.379Z,8.67
2017-10-14T07:04:32.834Z,9.35
2017-10-14T07:14:10.629Z,9.74
2017-10-14T07:23:52.338Z,10.13
2017-10-14T07:33:28.810Z,10.72
2017-10-14T07:43:00.735Z,11.21
2017-10-14T07:52:39.070Z,11.90
2017-10-14T08:02:17.287Z,12.09
2017-10-14T08:11:55.317Z,12.48
2017-10-14T08:21:36.970Z,13.17
2017-10-14T08:31:09.482Z,13.75
2017-10-14T08:40:47.357Z,14.24
2017-10-14T08:50:26.011Z,14.93
2017-10-14T09:00:03.964Z,15.12
2017-10-14T09:09:42.646Z,15.81
2017-10-14T09:19:24.167Z,15.90
2017-10-14T09:28:56.886Z,16.59
2017-10-14T09:38:34.329Z,16.69
2017-10-14T09:48:17.268Z,17.37
2017-10-14T09:57:48.908Z,17.67
2017-10-14T10:07:31.937Z,17.96
2017-10-14T10:17:04.142Z,18.25
2017-10-14T10:26:42.708Z,18.74
2017-10-14T10:36:24.437Z,18.94
2017-10-14T10:45:56.041Z,19.82
2017-10-14T10:55:35.286Z,21.87
2017-10-14T11:05:13.089Z,21.87
2017-10-14T11:14:54.504Z,22.16
2017-10-14T11:24:31.218Z,20.89
2017-10-14T11:34:07.434Z,20.60
2017-10-14T11:43:38.906Z,21.48
2017-10-14T11:53:17.988Z,22.07
2017-10-14T12:02:55.919Z,21.48
2017-10-14T12:12:33.895Z,21.97
2017-10-14T12:22:16.484Z,23.73
2017-10-14T12:31:48.090Z,22.07
2017-10-14T12:41:27.529Z,23.04
2017-10-14T12:51:09.041Z,22.36
2017-10-14T13:00:44.617Z,23.73
2017-10-14T13:10:23.859Z,24.32
2017-10-14T13:20:02.635Z,24.32
2017-10-14T13:29:33.516Z,25.10
2017-10-14T13:39:12.021Z,24.71
2017-10-14T13:48:50.048Z,25.68
2017-10-14T13:58:28.942Z,25.59
2017-10-14T14:08:01.934Z,21.48
2017-10-14T14:17:49.321Z,20.60
2017-10-14T14:27:14.809Z,19.82
2017-10-14T14:36:51.665Z,19.33
2017-10-14T14:46:32.941Z,19.33
2017-10-14T14:56:03.421Z,19.13
2017-10-14T15:05:40.223Z,18.64
2017-10-14T15:15:21.271Z,18.45
2017-10-14T15:24:51.771Z,17.76
2017-10-14T15:34:29.027Z,17.96
2017-10-14T15:44:06.079Z,17.37
2017-10-14T15:53:42.519Z,16.30
2017-10-14T16:03:19.502Z,15.32
2017-10-14T16:12:59.793Z,14.73
2017-10-14T16:22:30.213Z,14.15
2017-10-14T16:32:06.717Z,13.85
2017-10-14T16:41:47.003Z,13.46
2017-10-14T16:51:18.365Z,13.36
2017-10-14T17:00:55.357Z,12.97
2017-10-14T17:10:32.149Z,12.68
2017-10-14T17:20:08.556Z,12.29
2017-10-14T17:29:49.055Z,12.19
2017-10-14T17:39:20.463Z,11.90
2017-10-14T17:48:57.428Z,11.70
2017-10-14T17:58:34.341Z,11.41
2017-10-14T18:08:15.457Z,11.11
2017-10-14T18:17:50.729Z,11.01
2017-10-14T18:27:21.660Z,10.92
2017-10-14T18:37:02.282Z,10.72
2017-10-14T18:46:33.828Z,10.62
2017-10-14T18:56:10.645Z,10.53
2017-10-14T19:05:51.175Z,10.43
2017-10-14T19:15:22.617Z,10.23
2017-10-14T19:24:59.478Z,10.13
2017-10-14T19:34:36.785Z,10.04
2017-10-14T19:44:13.718Z,9.94
2017-10-14T19:53:50.358Z,9.94
2017-10-14T20:03:28.453Z,9.74
2017-10-14T20:13:05.374Z,9.74
2017-10-14T20:22:42.327Z,9.64
2017-10-14T20:32:19.297Z,9.55
2017-10-14T20:42:00.561Z,9.55
2017-10-14T20:51:32.292Z,9.55
2017-10-14T21:01:08.730Z,9.55
2017-10-14T21:10:50.778Z,9.25
2017-10-14T21:20:21.896Z,9.25
2017-10-14T21:29:58.815Z,9.16
2017-10-14T21:39:36.998Z,9.06
2017-10-14T21:49:13.731Z,8.96
2017-10-14T21:58:50.458Z,8.86
2017-10-14T22:08:32.513Z,8.77
2017-10-14T22:18:03.886Z,8.77
2017-10-14T22:27:41.008Z,8.67
2017-10-14T22:37:22.248Z,8.57
2017-10-14T22:46:53.744Z,8.57
2017-10-14T22:56:30.681Z,8.57
2017-10-14T23:06:07.904Z,8.47
2017-10-14T23:15:45.127Z,8.47
2017-10-14T23:25:22.011Z,8.28
2017-10-14T23:34:59.785Z,8.28
2017-10-14T23:44:37.740Z,8.37
2017-10-14T23:54:15.378Z,8.28
